createdAt,value
2023-04-13T00:01:23.509Z,3.08
2023-04-13T00:04:45.261Z,2.95
2023-04-13T00:08:09.267Z,3.38
2023-04-13T00:11:32.070Z,3.30
2023-04-13T00:14:53.934Z,3.38
2023-04-13T00:18:15.764Z,3.05
2023-04-13T00:21:37.999Z,3.60
2023-04-13T00:25:01.451Z,3.47
2023-04-13T00:28:24.342Z,3.35
2023-04-13T00:31:47.298Z,3.50
2023-04-13T00:35:10.733Z,3.55
2023-04-13T00:38:33.171Z,2.92
2023-04-13T00:41:56.074Z,3.78
2023-04-13T00:45:19.181Z,3.40
2023-04-13T00:48:41.248Z,3.83
2023-04-13T00:52:03.855Z,3.42
2023-04-13T00:55:25.773Z,3.28
2023-04-13T00:58:48.610Z,3.90
2023-04-13T01:02:10.419Z,4.13
2023-04-13T01:05:51.797Z,3.97
2023-04-13T01:09:19.720Z,3.70
2023-04-13T01:12:52.703Z,3.40
2023-04-13T01:16:21.301Z,4.05
2023-04-13T01:19:52.214Z,3.97
2023-04-13T01:23:28.482Z,4.28
2023-04-13T01:27:12.323Z,4.10
2023-04-13T01:30:37.587Z,3.95
2023-04-13T01:34:00.101Z,4.15
2023-04-13T01:37:25.790Z,4.88
2023-04-13T01:40:50.762Z,3.75
2023-04-13T01:44:14.116Z,4.50
2023-04-13T01:47:40.662Z,4.63
2023-04-13T01:51:24.330Z,5.80
2023-04-13T01:54:52.166Z,4.70
2023-04-13T01:58:15.832Z,4.93
2023-04-13T02:01:43.535Z,4.53
2023-04-13T02:05:09.631Z,4.67
2023-04-13T02:08:33.623Z,4.53
2023-04-13T02:11:55.377Z,5.53
2023-04-13T02:15:18.275Z,5.80
2023-04-13T02:18:41.170Z,6.15
2023-04-13T02:22:04.091Z,6.30
2023-04-13T02:25:25.985Z,6.88
2023-04-13T02:28:48.153Z,7.40
2023-04-13T02:32:10.554Z,7.25
2023-04-13T02:35:34.444Z,8.55
2023-04-13T02:38:58.478Z,7.90
2023-04-13T02:42:24.187Z,7.90
2023-04-13T02:45:46.289Z,8.30
2023-04-13T02:49:10.760Z,7.53
2023-04-13T02:52:39.166Z,8.27
2023-04-13T02:56:03.052Z,8.67
2023-04-13T02:59:25.642Z,7.53
2023-04-13T03:02:47.699Z,7.83
2023-04-13T03:06:12.298Z,7.53
2023-04-13T03:09:40.946Z,7.20
2023-04-13T03:13:05.886Z,8.13
2023-04-13T03:16:28.326Z,7.30
2023-04-13T03:19:52.092Z,6.87
2023-04-13T03:23:16.395Z,7.20
2023-04-13T03:26:39.339Z,6.47
2023-04-13T03:30:09.039Z,6.70
2023-04-13T03:33:40.503Z,7.23
2023-04-13T03:37:02.867Z,6.20
2023-04-13T03:40:25.110Z,7.83
2023-04-13T03:43:48.071Z,7.37
2023-04-13T03:47:11.475Z,6.40
2023-04-13T03:50:33.071Z,7.00
2023-04-13T03:53:55.638Z,7.03
2023-04-13T03:57:21.416Z,7.07
2023-04-13T04:00:44.451Z,7.20
2023-04-13T04:04:16.278Z,7.23
2023-04-13T04:07:38.561Z,7.30
2023-04-13T04:11:00.929Z,7.63
2023-04-13T04:14:24.377Z,6.43
2023-04-13T04:17:53.424Z,7.07
2023-04-13T04:21:21.653Z,6.93
2023-04-13T04:24:43.447Z,7.07
2023-04-13T04:28:06.340Z,7.20
2023-04-13T04:31:27.881Z,6.83
2023-04-13T04:34:53.080Z,7.07
2023-04-13T04:38:18.611Z,6.53
2023-04-13T04:41:40.578Z,7.23
2023-04-13T04:45:04.629Z,6.93
2023-04-13T04:48:31.706Z,6.90
2023-04-13T04:51:57.491Z,7.30
2023-04-13T04:55:21.300Z,6.80
2023-04-13T04:58:43.594Z,7.30
2023-04-13T05:02:06.092Z,6.73
2023-04-13T05:05:27.815Z,7.00
2023-04-13T05:08:49.794Z,7.10
2023-04-13T05:12:12.851Z,6.70
2023-04-13T05:15:38.451Z,6.73
2023-04-13T05:19:01.220Z,5.83
2023-04-13T05:22:42.154Z,6.33
2023-04-13T05:26:04.196Z,5.80
2023-04-13T05:29:27.441Z,6.40
2023-04-13T05:32:49.171Z,6.10
2023-04-13T05:36:11.562Z,5.77
2023-04-13T05:39:36.312Z,6.87
2023-04-13T05:42:57.915Z,7.53
2023-04-13T05:46:26.146Z,9.00
2023-04-13T05:49:48.318Z,9.10
2023-04-13T05:53:14.049Z,6.27
2023-04-13T05:56:42.959Z,5.63
2023-04-13T06:00:08.041Z,5.63
2023-04-13T06:03:43.492Z,6.53
2023-04-13T06:07:05.886Z,6.17
2023-04-13T06:10:28.325Z,6.87
2023-04-13T06:13:50.096Z,5.70
2023-04-13T06:17:11.548Z,6.37
2023-04-13T06:20:36.026Z,6.67
2023-04-13T06:23:58.020Z,5.60
2023-04-13T06:27:23.809Z,4.83
2023-04-13T06:30:45.820Z,5.50
2023-04-13T06:34:09.699Z,4.80
2023-04-13T06:37:34.139Z,4.13
2023-04-13T06:41:02.332Z,4.30
2023-04-13T06:44:27.060Z,4.40
2023-04-13T06:47:54.568Z,4.03
2023-04-13T06:51:16.180Z,4.07
2023-04-13T06:54:39.562Z,4.03
2023-04-13T06:58:14.353Z,3.90
2023-04-13T07:01:36.823Z,4.10
2023-04-13T07:04:59.568Z,4.17
2023-04-13T07:08:22.949Z,4.57
2023-04-13T07:11:46.254Z,4.50
2023-04-13T07:15:10.731Z,5.00
2023-04-13T07:18:33.475Z,5.37
2023-04-13T07:21:55.012Z,5.50
2023-04-13T07:25:17.059Z,5.17
2023-04-13T07:28:41.631Z,5.10
2023-04-13T07:32:08.489Z,5.10
2023-04-13T07:35:32.074Z,5.33
2023-04-13T07:38:55.342Z,5.40
2023-04-13T07:42:17.516Z,5.07
2023-04-13T07:45:45.972Z,5.00
2023-04-13T07:49:07.850Z,4.80
2023-04-13T07:52:31.588Z,4.55
2023-04-13T07:55:53.561Z,4.30
2023-04-13T07:59:15.884Z,4.90
2023-04-13T08:02:41.665Z,4.70
2023-04-13T08:06:08.424Z,5.30
2023-04-13T08:09:32.926Z,4.40
2023-04-13T08:12:54.687Z,4.55
2023-04-13T08:16:17.005Z,4.55
2023-04-13T08:19:40.586Z,4.53
2023-04-13T08:23:05.679Z,4.43
2023-04-13T08:26:27.716Z,4.40
2023-04-13T08:29:56.657Z,4.33
2023-04-13T08:33:18.577Z,3.50
2023-04-13T08:36:41.739Z,3.75
2023-04-13T08:40:07.742Z,3.28
2023-04-13T08:43:30.788Z,3.33
2023-04-13T08:46:53.558Z,3.75
2023-04-13T08:50:23.904Z,3.17
2023-04-13T08:53:49.896Z,3.20
2023-04-13T08:57:17.914Z,2.88
2023-04-13T09:00:41.736Z,2.92
2023-04-13T09:04:10.604Z,2.55
2023-04-13T09:07:37.097Z,2.78
2023-04-13T09:11:06.745Z,2.83
2023-04-13T09:14:29.222Z,2.38
2023-04-13T09:17:50.849Z,2.43
2023-04-13T09:21:14.905Z,2.05
2023-04-13T09:24:40.986Z,1.80
2023-04-13T09:28:08.619Z,2.08
2023-04-13T09:31:33.829Z,2.17
2023-04-13T09:35:00.012Z,2.72
2023-04-13T09:38:32.790Z,2.03
2023-04-13T09:41:54.923Z,2.35
2023-04-13T09:45:17.861Z,1.77
2023-04-13T09:48:40.124Z,1.90
2023-04-13T09:52:01.995Z,2.10
2023-04-13T09:55:24.350Z,1.80
2023-04-13T09:58:48.264Z,1.70
2023-04-13T10:02:13.213Z,2.20
2023-04-13T10:05:47.354Z,1.70
2023-04-13T10:09:21.223Z,1.90
2023-04-13T10:12:47.460Z,1.60
2023-04-13T10:16:33.882Z,1.67
2023-04-13T10:20:07.748Z,1.73
2023-04-13T10:23:32.082Z,1.80
2023-04-13T10:26:55.241Z,1.95
2023-04-13T10:30:18.713Z,1.52
2023-04-13T10:33:49.512Z,1.65
2023-04-13T10:37:21.539Z,2.33
2023-04-13T10:40:44.752Z,1.60
2023-04-13T10:44:08.026Z,2.97
2023-04-13T10:47:38.044Z,2.35
2023-04-13T10:51:00.480Z,1.80
2023-04-13T10:54:27.017Z,1.30
2023-04-13T10:57:48.619Z,1.60
2023-04-13T11:01:11.777Z,1.60
2023-04-13T11:04:34.138Z,1.88
2023-04-13T11:07:56.496Z,2.80
2023-04-13T11:11:27.148Z,1.50
2023-04-13T11:14:49.746Z,1.48
2023-04-13T11:18:11.858Z,1.90
2023-04-13T11:21:35.468Z,1.30
2023-04-13T11:25:08.985Z,1.55
2023-04-13T11:28:40.409Z,1.50
2023-04-13T11:32:02.162Z,1.60
2023-04-13T11:35:24.688Z,1.30
2023-04-13T11:38:49.776Z,1.55
2023-04-13T11:42:11.441Z,1.80
2023-04-13T11:45:35.675Z,1.40
2023-04-13T11:48:58.157Z,1.55
2023-04-13T11:52:20.743Z,1.30
2023-04-13T11:55:52.776Z,1.95
2023-04-13T11:59:15.982Z,1.33
2023-04-13T12:02:54.659Z,1.80
2023-04-13T12:06:24.296Z,1.60
2023-04-13T12:17:01.415Z,1.45
2023-04-13T12:20:20.439Z,1.63
2023-04-13T12:23:53.337Z,1.20
2023-04-13T12:27:18.947Z,1.30
2023-04-13T12:30:40.865Z,1.23
2023-04-13T12:34:02.228Z,1.50
2023-04-13T12:37:25.360Z,1.50
2023-04-13T12:40:46.960Z,1.30
2023-04-13T12:44:10.487Z,1.08
2023-04-13T12:47:32.190Z,1.30
2023-04-13T12:50:54.728Z,1.23
2023-04-13T12:54:18.067Z,1.17
2023-04-13T12:57:40.506Z,1.10
2023-04-13T13:01:02.877Z,1.02
2023-04-13T13:04:25.048Z,1.10
2023-04-13T13:07:46.628Z,0.90
2023-04-13T13:11:10.022Z,1.00
2023-04-13T13:14:32.404Z,1.00
2023-04-13T13:17:54.305Z,1.00
2023-04-13T13:21:16.020Z,0.77
2023-04-13T13:24:39.161Z,1.15
2023-04-13T13:28:14.158Z,1.10
2023-04-13T13:31:37.099Z,1.10
2023-04-13T13:34:59.011Z,1.52
2023-04-13T13:38:20.842Z,0.95
2023-04-13T13:41:42.177Z,0.80
2023-04-13T13:45:06.496Z,1.20
2023-04-13T13:48:28.377Z,1.15
2023-04-13T13:51:59.455Z,1.08
2023-04-13T13:55:24.017Z,1.00
2023-04-13T13:58:45.756Z,1.55
2023-04-13T14:02:09.727Z,1.20
2023-04-13T14:05:32.229Z,1.10
2023-04-13T14:08:55.830Z,1.00
2023-04-13T14:12:17.503Z,0.80
2023-04-13T14:15:38.851Z,1.02
2023-04-13T14:19:02.427Z,1.30
2023-04-13T14:22:24.628Z,1.40
2023-04-13T14:25:46.432Z,1.20
2023-04-13T14:29:09.020Z,0.90
2023-04-13T14:32:31.194Z,1.05
2023-04-13T14:35:54.453Z,1.10
2023-04-13T14:39:16.919Z,1.30
2023-04-13T14:42:38.341Z,0.98
2023-04-13T14:46:00.411Z,1.00
2023-04-13T14:49:22.080Z,1.23
2023-04-13T14:52:46.252Z,1.15
2023-04-13T14:56:08.469Z,1.48
2023-04-13T14:59:29.898Z,0.95
2023-04-13T15:02:52.488Z,1.10
2023-04-13T15:06:14.842Z,1.00
2023-04-13T15:09:40.258Z,1.00
2023-04-13T15:13:03.689Z,1.10
2023-04-13T15:16:25.618Z,1.17
2023-04-13T15:19:47.473Z,1.00
2023-04-13T15:23:09.530Z,1.08
2023-04-13T15:26:38.507Z,1.58
2023-04-13T15:30:03.142Z,1.13
2023-04-13T15:33:25.341Z,1.20
2023-04-13T15:36:47.187Z,1.30
2023-04-13T15:40:10.682Z,1.20
2023-04-13T15:43:33.726Z,1.38
2023-04-13T15:46:55.473Z,1.08
2023-04-13T15:50:18.435Z,1.00
2023-04-13T15:53:40.118Z,0.98
2023-04-13T15:57:02.452Z,0.95
2023-04-13T16:00:26.270Z,0.90
2023-04-13T16:03:48.263Z,1.05
2023-04-13T16:07:13.756Z,1.05
2023-04-13T16:10:37.193Z,0.90
2023-04-13T16:14:07.100Z,1.02
2023-04-13T16:17:34.549Z,0.90
2023-04-13T16:20:57.970Z,0.95
2023-04-13T16:24:21.095Z,0.95
2023-04-13T16:27:42.782Z,0.90
2023-04-13T16:31:04.803Z,1.02
2023-04-13T16:34:29.052Z,1.10
2023-04-13T16:37:50.541Z,1.05
2023-04-13T16:41:12.353Z,1.67
2023-04-13T16:44:34.539Z,0.90
2023-04-13T16:47:57.803Z,0.80
2023-04-13T16:51:20.994Z,1.27
2023-04-13T16:54:44.428Z,1.10
2023-04-13T16:58:07.457Z,1.30
2023-04-13T17:01:30.837Z,1.00
2023-04-13T17:04:54.607Z,0.85
2023-04-13T17:08:17.873Z,0.90
2023-04-13T17:11:39.253Z,1.10
2023-04-13T17:15:01.079Z,0.93
2023-04-13T17:18:25.863Z,0.90
2023-04-13T17:21:47.577Z,0.98
2023-04-13T17:25:11.349Z,1.20
2023-04-13T17:28:33.414Z,1.15
2023-04-13T17:31:54.949Z,1.42
2023-04-13T17:35:18.597Z,1.15
2023-04-13T17:38:40.643Z,1.75
2023-04-13T17:42:03.847Z,1.40
2023-04-13T17:45:25.329Z,1.27
2023-04-13T17:48:46.662Z,1.42
2023-04-13T17:52:09.603Z,1.48
2023-04-13T17:55:31.551Z,1.63
2023-04-13T17:58:54.948Z,2.20
2023-04-13T18:02:16.959Z,3.17
2023-04-13T18:05:44.330Z,4.18
2023-04-13T18:09:06.094Z,1.90
2023-04-13T18:12:27.518Z,3.42
2023-04-13T18:15:50.714Z,1.45
2023-04-13T18:19:12.286Z,1.50
2023-04-13T18:22:34.599Z,2.35
2023-04-13T18:25:56.346Z,1.50
2023-04-13T18:29:17.698Z,3.35
2023-04-13T18:32:40.958Z,5.90
2023-04-13T18:36:02.659Z,9.35
2023-04-13T18:39:24.653Z,10.18
2023-04-13T18:42:49.925Z,6.70
2023-04-13T18:46:12.516Z,4.32
2023-04-13T18:49:36.001Z,5.35
2023-04-13T18:52:58.046Z,5.55
2023-04-13T18:56:19.496Z,4.93
2023-04-13T18:59:40.912Z,5.15
2023-04-13T19:03:02.442Z,6.18
2023-04-13T19:06:26.362Z,4.28
2023-04-13T19:09:48.471Z,4.10
2023-04-13T19:13:15.541Z,4.50
2023-04-13T19:16:38.066Z,4.20
2023-04-13T19:19:59.551Z,4.32
2023-04-13T19:23:23.015Z,5.40
2023-04-13T19:26:44.595Z,5.90
2023-04-13T19:30:09.718Z,5.25
2023-04-13T19:33:33.461Z,5.97
2023-04-13T19:36:54.957Z,4.05
2023-04-13T19:40:18.033Z,3.63
2023-04-13T19:43:40.118Z,3.75
2023-04-13T19:47:01.928Z,3.63
2023-04-13T19:50:23.578Z,2.90
2023-04-13T19:53:44.963Z,2.90
2023-04-13T19:57:08.487Z,2.55
2023-04-13T20:00:30.103Z,2.20
2023-04-13T20:03:52.265Z,2.28
2023-04-13T20:07:14.568Z,1.65
2023-04-13T20:10:36.213Z,2.10
2023-04-13T20:13:59.186Z,2.50
2023-04-13T20:17:21.186Z,2.87
2023-04-13T20:20:43.347Z,2.10
2023-04-13T20:24:06.022Z,2.30
2023-04-13T20:27:27.764Z,2.60
2023-04-13T20:30:51.028Z,2.27
2023-04-13T20:34:13.612Z,3.30
2023-04-13T20:37:35.273Z,3.07
2023-04-13T20:40:57.043Z,3.30
2023-04-13T20:44:23.612Z,3.15
2023-04-13T20:47:50.392Z,2.57
2023-04-13T20:51:13.129Z,2.53
2023-04-13T20:54:34.739Z,2.60
2023-04-13T20:57:56.539Z,2.70
2023-04-13T21:01:18.311Z,2.93
2023-04-13T21:04:42.240Z,3.00
2023-04-13T21:08:03.985Z,3.80
2023-04-13T21:11:26.202Z,3.80
2023-04-13T21:14:47.806Z,4.10
2023-04-13T21:18:10.084Z,4.10
2023-04-13T21:21:33.027Z,6.37
2023-04-13T21:24:55.425Z,5.90
2023-04-13T21:28:17.850Z,6.23
2023-04-13T21:31:39.369Z,5.97
2023-04-13T21:35:01.162Z,5.20
2023-04-13T21:38:24.564Z,6.57
2023-04-13T21:41:46.363Z,7.20
2023-04-13T21:45:09.421Z,9.10
2023-04-13T21:48:31.101Z,7.00
2023-04-13T21:51:52.382Z,6.67
2023-04-13T21:55:18.897Z,5.77
2023-04-13T21:58:42.022Z,4.83
2023-04-13T22:02:04.110Z,3.80
2023-04-13T22:05:26.043Z,3.80
2023-04-13T22:08:47.377Z,4.30
2023-04-13T22:12:11.499Z,3.90
2023-04-13T22:15:33.715Z,3.70
2023-04-13T22:18:55.328Z,3.43
2023-04-13T22:22:16.773Z,2.60
2023-04-13T22:25:38.751Z,2.83
2023-04-13T22:29:02.363Z,2.70
2023-04-13T22:32:24.722Z,2.87
2023-04-13T22:35:46.448Z,2.53
2023-04-13T22:39:08.345Z,2.50
2023-04-13T22:42:30.069Z,2.30
2023-04-13T22:45:59.651Z,2.27
2023-04-13T22:49:21.938Z,2.13
2023-04-13T22:52:43.252Z,2.80
2023-04-13T22:56:05.600Z,2.30
2023-04-13T22:59:27.279Z,2.20
2023-04-13T23:02:55.825Z,2.10
2023-04-13T23:06:17.667Z,2.60
2023-04-13T23:09:39.349Z,2.33
2023-04-13T23:13:02.238Z,2.37
2023-04-13T23:16:23.631Z,2.53
2023-04-13T23:19:46.929Z,2.90
2023-04-13T23:23:08.304Z,2.80
2023-04-13T23:26:30.017Z,3.13
2023-04-13T23:29:51.705Z,3.37
2023-04-13T23:33:13.743Z,3.60
2023-04-13T23:36:37.377Z,3.50
2023-04-13T23:39:58.971Z,3.50
2023-04-13T23:43:21.355Z,3.87
2023-04-13T23:46:43.518Z,3.43
2023-04-13T23:50:06.060Z,3.00
2023-04-13T23:53:29.100Z,3.03
2023-04-13T23:56:50.660Z,3.20
